sensor_id;sensor_type;location;lat;lon;timestamp;P1;durP1;ratioP1;P2;durP2;ratioP2
49962;SDS011;36180;57.678;11.910;2023-07-13T00:00:48;10.10;;;3.13;;
49962;SDS011;36180;57.678;11.910;2023-07-13T00:03:15;12.07;;;2.80;;
49962;SDS011;36180;57.678;11.910;2023-07-13T00:05:42;11.13;;;3.05;;
49962;SDS011;36180;57.678;11.910;2023-07-13T00:08:11;8.88;;;2.60;;
49962;SDS011;36180;57.678;11.910;2023-07-13T00:10:41;12.38;;;3.22;;
49962;SDS011;36180;57.678;11.910;2023-07-13T00:13:08;9.90;;;3.00;;
49962;SDS011;36180;57.678;11.910;2023-07-13T00:15:36;11.77;;;3.30;;
49962;SDS011;36180;57.678;11.910;2023-07-13T00:18:03;8.65;;;2.72;;
49962;SDS011;36180;57.678;11.910;2023-07-13T00:20:30;11.27;;;2.95;;
49962;SDS011;36180;57.678;11.910;2023-07-13T00:22:57;9.98;;;2.70;;
49962;SDS011;36180;57.678;11.910;2023-07-13T00:25:26;14.77;;;3.25;;
49962;SDS011;36180;57.678;11.910;2023-07-13T00:27:53;11.45;;;3.15;;
49962;SDS011;36180;57.678;11.910;2023-07-13T00:30:20;12.40;;;3.38;;
49962;SDS011;36180;57.678;11.910;2023-07-13T00:32:48;6.72;;;3.20;;
49962;SDS011;36180;57.678;11.910;2023-07-13T00:35:15;12.05;;;3.05;;
49962;SDS011;36180;57.678;11.910;2023-07-13T00:37:42;8.55;;;2.63;;
49962;SDS011;36180;57.678;11.910;2023-07-13T00:40:10;12.15;;;3.70;;
49962;SDS011;36180;57.678;11.910;2023-07-13T00:42:40;10.32;;;3.53;;
49962;SDS011;36180;57.678;11.910;2023-07-13T00:48:08;12.35;;;3.20;;
49962;SDS011;36180;57.678;11.910;2023-07-13T00:50:35;15.48;;;2.97;;
49962;SDS011;36180;57.678;11.910;2023-07-13T00:53:02;15.90;;;3.60;;
49962;SDS011;36180;57.678;11.910;2023-07-13T00:55:29;15.10;;;3.70;;
49962;SDS011;36180;57.678;11.910;2023-07-13T00:57:58;11.02;;;3.60;;
49962;SDS011;36180;57.678;11.910;2023-07-13T01:00:25;16.75;;;3.80;;
49962;SDS011;36180;57.678;11.910;2023-07-13T01:02:53;13.80;;;3.95;;
49962;SDS011;36180;57.678;11.910;2023-07-13T01:05:21;15.48;;;2.95;;
49962;SDS011;36180;57.678;11.910;2023-07-13T01:07:49;10.30;;;3.63;;
49962;SDS011;36180;57.678;11.910;2023-07-13T01:10:18;10.77;;;3.53;;
49962;SDS011;36180;57.678;11.910;2023-07-13T01:12:48;12.35;;;3.63;;
49962;SDS011;36180;57.678;11.910;2023-07-13T01:18:05;9.80;;;3.55;;
49962;SDS011;36180;57.678;11.910;2023-07-13T01:20:38;16.85;;;4.45;;
49962;SDS011;36180;57.678;11.910;2023-07-13T01:23:07;11.38;;;3.97;;
49962;SDS011;36180;57.678;11.910;2023-07-13T01:25:36;10.77;;;3.45;;
49962;SDS011;36180;57.678;11.910;2023-07-13T01:28:04;16.55;;;4.13;;
49962;SDS011;36180;57.678;11.910;2023-07-13T01:30:34;13.52;;;4.07;;
49962;SDS011;36180;57.678;11.910;2023-07-13T01:33:01;16.95;;;4.43;;
49962;SDS011;36180;57.678;11.910;2023-07-13T01:35:29;20.33;;;4.22;;
49962;SDS011;36180;57.678;11.910;2023-07-13T01:37:56;19.45;;;4.47;;
49962;SDS011;36180;57.678;11.910;2023-07-13T01:40:27;15.05;;;4.22;;
49962;SDS011;36180;57.678;11.910;2023-07-13T01:42:56;13.43;;;3.70;;
49962;SDS011;36180;57.678;11.910;2023-07-13T01:45:24;10.57;;;3.90;;
49962;SDS011;36180;57.678;11.910;2023-07-13T01:47:51;17.02;;;4.20;;
49962;SDS011;36180;57.678;11.910;2023-07-13T01:50:18;14.10;;;4.07;;
49962;SDS011;36180;57.678;11.910;2023-07-13T01:52:45;19.17;;;3.70;;
49962;SDS011;36180;57.678;11.910;2023-07-13T01:55:13;11.95;;;3.38;;
49962;SDS011;36180;57.678;11.910;2023-07-13T01:57:41;16.58;;;3.70;;
49962;SDS011;36180;57.678;11.910;2023-07-13T02:00:09;19.88;;;4.38;;
49962;SDS011;36180;57.678;11.910;2023-07-13T02:02:46;15.48;;;3.78;;
49962;SDS011;36180;57.678;11.910;2023-07-13T02:05:13;13.27;;;4.25;;
49962;SDS011;36180;57.678;11.910;2023-07-13T02:07:41;18.52;;;3.60;;
49962;SDS011;36180;57.678;11.910;2023-07-13T02:10:09;13.48;;;4.13;;
49962;SDS011;36180;57.678;11.910;2023-07-13T02:12:37;11.80;;;3.70;;
49962;SDS011;36180;57.678;11.910;2023-07-13T02:15:06;12.73;;;4.32;;
49962;SDS011;36180;57.678;11.910;2023-07-13T02:17:34;18.05;;;4.18;;
49962;SDS011;36180;57.678;11.910;2023-07-13T02:20:02;12.10;;;4.40;;
49962;SDS011;36180;57.678;11.910;2023-07-13T02:22:29;17.48;;;5.05;;
49962;SDS011;36180;57.678;11.910;2023-07-13T02:24:57;8.32;;;3.83;;
49962;SDS011;36180;57.678;11.910;2023-07-13T02:27:24;17.73;;;4.65;;
49962;SDS011;36180;57.678;11.910;2023-07-13T02:29:52;15.55;;;4.25;;
49962;SDS011;36180;57.678;11.910;2023-07-13T02:32:21;14.27;;;4.35;;
49962;SDS011;36180;57.678;11.910;2023-07-13T02:34:50;11.57;;;4.22;;
49962;SDS011;36180;57.678;11.910;2023-07-13T02:37:18;10.35;;;4.47;;
49962;SDS011;36180;57.678;11.910;2023-07-13T02:39:46;12.05;;;3.92;;
49962;SDS011;36180;57.678;11.910;2023-07-13T02:42:14;10.68;;;4.03;;
49962;SDS011;36180;57.678;11.910;2023-07-13T02:44:43;13.15;;;4.00;;
49962;SDS011;36180;57.678;11.910;2023-07-13T02:47:10;13.85;;;4.60;;
49962;SDS011;36180;57.678;11.910;2023-07-13T02:49:39;14.63;;;3.90;;
49962;SDS011;36180;57.678;11.910;2023-07-13T02:52:06;13.95;;;4.30;;
49962;SDS011;36180;57.678;11.910;2023-07-13T02:54:34;11.52;;;4.28;;
49962;SDS011;36180;57.678;11.910;2023-07-13T02:57:01;16.17;;;4.85;;
49962;SDS011;36180;57.678;11.910;2023-07-13T02:59:28;15.82;;;4.97;;
49962;SDS011;36180;57.678;11.910;2023-07-13T03:01:55;10.05;;;3.90;;
49962;SDS011;36180;57.678;11.910;2023-07-13T03:04:22;16.77;;;4.30;;
49962;SDS011;36180;57.678;11.910;2023-07-13T03:06:51;22.42;;;4.43;;
49962;SDS011;36180;57.678;11.910;2023-07-13T03:09:26;11.38;;;4.28;;
49962;SDS011;36180;57.678;11.910;2023-07-13T03:11:59;15.02;;;4.80;;
49962;SDS011;36180;57.678;11.910;2023-07-13T03:14:29;15.00;;;4.30;;
49962;SDS011;36180;57.678;11.910;2023-07-13T03:16:58;16.75;;;4.85;;
49962;SDS011;36180;57.678;11.910;2023-07-13T03:19:28;16.30;;;4.53;;
49962;SDS011;36180;57.678;11.910;2023-07-13T03:21:56;10.77;;;4.55;;
49962;SDS011;36180;57.678;11.910;2023-07-13T03:24:24;15.05;;;4.68;;
49962;SDS011;36180;57.678;11.910;2023-07-13T03:26:51;18.25;;;5.55;;
49962;SDS011;36180;57.678;11.910;2023-07-13T03:29:19;24.00;;;4.97;;
49962;SDS011;36180;57.678;11.910;2023-07-13T03:31:46;16.92;;;4.95;;
49962;SDS011;36180;57.678;11.910;2023-07-13T03:34:14;12.30;;;4.50;;
49962;SDS011;36180;57.678;11.910;2023-07-13T03:36:41;15.02;;;5.00;;
49962;SDS011;36180;57.678;11.910;2023-07-13T03:39:12;17.85;;;4.70;;
49962;SDS011;36180;57.678;11.910;2023-07-13T03:41:52;12.57;;;4.43;;
49962;SDS011;36180;57.678;11.910;2023-07-13T03:44:19;10.90;;;4.22;;
49962;SDS011;36180;57.678;11.910;2023-07-13T03:46:51;13.57;;;4.30;;
49962;SDS011;36180;57.678;11.910;2023-07-13T03:49:19;18.10;;;5.03;;
49962;SDS011;36180;57.678;11.910;2023-07-13T03:51:46;11.68;;;4.13;;
49962;SDS011;36180;57.678;11.910;2023-07-13T03:54:14;17.38;;;4.35;;
49962;SDS011;36180;57.678;11.910;2023-07-13T03:56:41;13.15;;;4.18;;
49962;SDS011;36180;57.678;11.910;2023-07-13T03:59:09;20.20;;;4.38;;
49962;SDS011;36180;57.678;11.910;2023-07-13T04:01:37;11.75;;;4.32;;
49962;SDS011;36180;57.678;11.910;2023-07-13T04:04:04;12.65;;;4.38;;
49962;SDS011;36180;57.678;11.910;2023-07-13T04:06:32;15.13;;;4.10;;
49962;SDS011;36180;57.678;11.910;2023-07-13T04:09:00;18.58;;;4.28;;
49962;SDS011;36180;57.678;11.910;2023-07-13T04:11:32;12.18;;;4.15;;
49962;SDS011;36180;57.678;11.910;2023-07-13T04:14:01;14.13;;;3.72;;
49962;SDS011;36180;57.678;11.910;2023-07-13T04:16:29;12.07;;;3.67;;
49962;SDS011;36180;57.678;11.910;2023-07-13T04:18:56;13.23;;;4.10;;
49962;SDS011;36180;57.678;11.910;2023-07-13T04:21:25;12.25;;;4.47;;
49962;SDS011;36180;57.678;11.910;2023-07-13T04:23:52;13.75;;;3.53;;
49962;SDS011;36180;57.678;11.910;2023-07-13T04:26:19;12.20;;;4.25;;
49962;SDS011;36180;57.678;11.910;2023-07-13T04:28:49;16.65;;;3.80;;
49962;SDS011;36180;57.678;11.910;2023-07-13T04:31:17;13.70;;;3.70;;
49962;SDS011;36180;57.678;11.910;2023-07-13T04:33:44;13.18;;;3.85;;
49962;SDS011;36180;57.678;11.910;2023-07-13T04:36:11;12.95;;;3.97;;
49962;SDS011;36180;57.678;11.910;2023-07-13T04:38:38;15.00;;;3.95;;
49962;SDS011;36180;57.678;11.910;2023-07-13T04:41:06;10.77;;;4.18;;
49962;SDS011;36180;57.678;11.910;2023-07-13T04:43:34;16.20;;;4.18;;
49962;SDS011;36180;57.678;11.910;2023-07-13T04:46:07;10.95;;;3.60;;
49962;SDS011;36180;57.678;11.910;2023-07-13T04:48:36;12.38;;;3.85;;
49962;SDS011;36180;57.678;11.910;2023-07-13T04:51:03;11.80;;;3.30;;
49962;SDS011;36180;57.678;11.910;2023-07-13T04:53:31;11.13;;;3.30;;
49962;SDS011;36180;57.678;11.910;2023-07-13T04:55:59;13.20;;;3.65;;
49962;SDS011;36180;57.678;11.910;2023-07-13T04:58:27;8.52;;;3.53;;
49962;SDS011;36180;57.678;11.910;2023-07-13T05:00:59;13.77;;;3.50;;
49962;SDS011;36180;57.678;11.910;2023-07-13T05:03:28;9.35;;;3.35;;
49962;SDS011;36180;57.678;11.910;2023-07-13T05:05:56;8.48;;;3.85;;
49962;SDS011;36180;57.678;11.910;2023-07-13T05:08:24;14.90;;;3.30;;
49962;SDS011;36180;57.678;11.910;2023-07-13T05:10:51;12.48;;;3.45;;
49962;SDS011;36180;57.678;11.910;2023-07-13T05:13:18;13.93;;;3.53;;
49962;SDS011;36180;57.678;11.910;2023-07-13T05:15:47;12.13;;;3.25;;
49962;SDS011;36180;57.678;11.910;2023-07-13T05:18:14;9.27;;;3.38;;
49962;SDS011;36180;57.678;11.910;2023-07-13T05:20:43;9.73;;;3.90;;
49962;SDS011;36180;57.678;11.910;2023-07-13T05:23:10;18.60;;;3.63;;
49962;SDS011;36180;57.678;11.910;2023-07-13T05:25:37;11.10;;;3.67;;
49962;SDS011;36180;57.678;11.910;2023-07-13T05:28:04;10.65;;;2.63;;
49962;SDS011;36180;57.678;11.910;2023-07-13T05:30:31;12.30;;;4.05;;
49962;SDS011;36180;57.678;11.910;2023-07-13T05:32:59;13.55;;;3.13;;
49962;SDS011;36180;57.678;11.910;2023-07-13T05:35:26;9.73;;;3.40;;
49962;SDS011;36180;57.678;11.910;2023-07-13T05:37:54;7.68;;;2.90;;
49962;SDS011;36180;57.678;11.910;2023-07-13T05:40:21;9.63;;;2.92;;
49962;SDS011;36180;57.678;11.910;2023-07-13T05:42:48;11.30;;;2.90;;
49962;SDS011;36180;57.678;11.910;2023-07-13T05:45:15;10.18;;;3.28;;
49962;SDS011;36180;57.678;11.910;2023-07-13T05:47:42;12.90;;;3.42;;
49962;SDS011;36180;57.678;11.910;2023-07-13T05:50:09;13.73;;;3.88;;
49962;SDS011;36180;57.678;11.910;2023-07-13T05:52:36;8.48;;;3.40;;
49962;SDS011;36180;57.678;11.910;2023-07-13T05:55:05;18.10;;;3.63;;
49962;SDS011;36180;57.678;11.910;2023-07-13T05:57:33;13.70;;;3.60;;
49962;SDS011;36180;57.678;11.910;2023-07-13T06:00:00;11.57;;;3.38;;
49962;SDS011;36180;57.678;11.910;2023-07-13T06:02:37;14.30;;;3.92;;
49962;SDS011;36180;57.678;11.910;2023-07-13T06:05:05;13.52;;;3.67;;
49962;SDS011;36180;57.678;11.910;2023-07-13T06:07:32;15.80;;;3.95;;
49962;SDS011;36180;57.678;11.910;2023-07-13T06:09:59;12.98;;;3.60;;
49962;SDS011;36180;57.678;11.910;2023-07-13T06:12:28;11.07;;;3.22;;
49962;SDS011;36180;57.678;11.910;2023-07-13T06:14:55;14.35;;;3.53;;
49962;SDS011;36180;57.678;11.910;2023-07-13T06:17:22;10.57;;;4.05;;
49962;SDS011;36180;57.678;11.910;2023-07-13T06:19:49;12.57;;;3.13;;
49962;SDS011;36180;57.678;11.910;2023-07-13T06:22:16;13.50;;;3.80;;
49962;SDS011;36180;57.678;11.910;2023-07-13T06:24:43;10.30;;;3.20;;
49962;SDS011;36180;57.678;11.910;2023-07-13T06:27:10;13.75;;;3.10;;
49962;SDS011;36180;57.678;11.910;2023-07-13T06:29:38;11.40;;;3.70;;
49962;SDS011;36180;57.678;11.910;2023-07-13T06:32:06;15.45;;;3.92;;
49962;SDS011;36180;57.678;11.910;2023-07-13T06:34:34;15.68;;;3.75;;
49962;SDS011;36180;57.678;11.910;2023-07-13T06:37:01;11.55;;;3.80;;
49962;SDS011;36180;57.678;11.910;2023-07-13T06:39:28;11.55;;;3.70;;
49962;SDS011;36180;57.678;11.910;2023-07-13T06:41:55;10.68;;;4.00;;
49962;SDS011;36180;57.678;11.910;2023-07-13T06:44:22;7.05;;;3.53;;
49962;SDS011;36180;57.678;11.910;2023-07-13T06:46:51;10.05;;;3.40;;
49962;SDS011;36180;57.678;11.910;2023-07-13T06:49:18;11.93;;;3.42;;
49962;SDS011;36180;57.678;11.910;2023-07-13T06:51:45;7.07;;;3.25;;
49962;SDS011;36180;57.678;11.910;2023-07-13T06:54:13;11.43;;;3.20;;
49962;SDS011;36180;57.678;11.910;2023-07-13T06:56:40;14.32;;;3.35;;
49962;SDS011;36180;57.678;11.910;2023-07-13T06:59:07;9.60;;;3.40;;
49962;SDS011;36180;57.678;11.910;2023-07-13T07:01:35;7.18;;;3.40;;
49962;SDS011;36180;57.678;11.910;2023-07-13T07:04:04;12.27;;;3.33;;
49962;SDS011;36180;57.678;11.910;2023-07-13T07:06:31;15.43;;;3.55;;
49962;SDS011;36180;57.678;11.910;2023-07-13T07:08:58;8.35;;;3.13;;
49962;SDS011;36180;57.678;11.910;2023-07-13T07:11:25;10.52;;;3.90;;
49962;SDS011;36180;57.678;11.910;2023-07-13T07:13:52;9.00;;;3.10;;
49962;SDS011;36180;57.678;11.910;2023-07-13T07:16:20;11.02;;;3.35;;
49962;SDS011;36180;57.678;11.910;2023-07-13T07:18:47;11.07;;;3.13;;
49962;SDS011;36180;57.678;11.910;2023-07-13T07:21:16;10.10;;;3.15;;
49962;SDS011;36180;57.678;11.910;2023-07-13T07:23:43;6.80;;;2.90;;
49962;SDS011;36180;57.678;11.910;2023-07-13T07:26:10;9.32;;;2.75;;
49962;SDS011;36180;57.678;11.910;2023-07-13T07:28:37;9.60;;;2.92;;
49962;SDS011;36180;57.678;11.910;2023-07-13T07:31:04;7.88;;;2.60;;
49962;SDS011;36180;57.678;11.910;2023-07-13T07:33:32;7.45;;;2.80;;
49962;SDS011;36180;57.678;11.910;2023-07-13T07:35:59;7.65;;;2.78;;
49962;SDS011;36180;57.678;11.910;2023-07-13T07:38:28;10.63;;;3.08;;
49962;SDS011;36180;57.678;11.910;2023-07-13T07:40:55;7.97;;;2.80;;
49962;SDS011;36180;57.678;11.910;2023-07-13T07:43:22;4.97;;;2.15;;
49962;SDS011;36180;57.678;11.910;2023-07-13T07:45:49;7.80;;;3.13;;
49962;SDS011;36180;57.678;11.910;2023-07-13T07:48:16;3.90;;;1.83;;
49962;SDS011;36180;57.678;11.910;2023-07-13T07:50:43;8.02;;;2.33;;
49962;SDS011;36180;57.678;11.910;2023-07-13T07:53:10;7.20;;;2.47;;
49962;SDS011;36180;57.678;11.910;2023-07-13T07:55:39;8.00;;;2.42;;
49962;SDS011;36180;57.678;11.910;2023-07-13T07:58:06;5.57;;;2.42;;
49962;SDS011;36180;57.678;11.910;2023-07-13T08:00:34;6.10;;;2.38;;
49962;SDS011;36180;57.678;11.910;2023-07-13T08:03:01;5.90;;;2.15;;
49962;SDS011;36180;57.678;11.910;2023-07-13T08:05:28;8.48;;;2.28;;
49962;SDS011;36180;57.678;11.910;2023-07-13T08:07:55;6.28;;;2.15;;
49962;SDS011;36180;57.678;11.910;2023-07-13T08:10:22;9.65;;;2.70;;
49962;SDS011;36180;57.678;11.910;2023-07-13T08:12:51;5.35;;;2.03;;
49962;SDS011;36180;57.678;11.910;2023-07-13T08:15:18;8.20;;;1.88;;
49962;SDS011;36180;57.678;11.910;2023-07-13T08:17:46;6.57;;;2.15;;
49962;SDS011;36180;57.678;11.910;2023-07-13T08:20:14;9.93;;;2.65;;
49962;SDS011;36180;57.678;11.910;2023-07-13T08:22:41;4.32;;;1.90;;
49962;SDS011;36180;57.678;11.910;2023-07-13T08:25:08;5.93;;;2.00;;
49962;SDS011;36180;57.678;11.910;2023-07-13T08:27:35;6.80;;;1.92;;
49962;SDS011;36180;57.678;11.910;2023-07-13T08:30:04;6.43;;;1.55;;
49962;SDS011;36180;57.678;11.910;2023-07-13T08:32:33;11.85;;;2.17;;
49962;SDS011;36180;57.678;11.910;2023-07-13T08:35:00;5.80;;;2.20;;
49962;SDS011;36180;57.678;11.910;2023-07-13T08:37:27;6.15;;;2.20;;
49962;SDS011;36180;57.678;11.910;2023-07-13T08:39:54;5.63;;;2.25;;
49962;SDS011;36180;57.678;11.910;2023-07-13T08:42:28;5.93;;;2.28;;
49962;SDS011;36180;57.678;11.910;2023-07-13T08:45:02;4.82;;;2.17;;
49962;SDS011;36180;57.678;11.910;2023-07-13T08:47:37;5.68;;;2.25;;
49962;SDS011;36180;57.678;11.910;2023-07-13T08:50:08;8.27;;;1.92;;
49962;SDS011;36180;57.678;11.910;2023-07-13T08:52:38;6.38;;;1.90;;
49962;SDS011;36180;57.678;11.910;2023-07-13T08:55:09;9.77;;;2.10;;
49962;SDS011;36180;57.678;11.910;2023-07-13T08:57:40;10.57;;;2.65;;
49962;SDS011;36180;57.678;11.910;2023-07-13T09:00:11;6.93;;;2.08;;
49962;SDS011;36180;57.678;11.910;2023-07-13T09:02:42;7.32;;;2.25;;
49962;SDS011;36180;57.678;11.910;2023-07-13T09:05:13;7.82;;;2.17;;
49962;SDS011;36180;57.678;11.910;2023-07-13T09:07:48;5.10;;;2.20;;
49962;SDS011;36180;57.678;11.910;2023-07-13T09:10:27;6.75;;;2.00;;
49962;SDS011;36180;57.678;11.910;2023-07-13T09:12:58;4.82;;;2.42;;
49962;SDS011;36180;57.678;11.910;2023-07-13T09:15:32;6.25;;;2.25;;
49962;SDS011;36180;57.678;11.910;2023-07-13T09:18:03;8.18;;;2.35;;
49962;SDS011;36180;57.678;11.910;2023-07-13T09:20:33;7.15;;;2.20;;
49962;SDS011;36180;57.678;11.910;2023-07-13T09:23:03;7.13;;;2.20;;
49962;SDS011;36180;57.678;11.910;2023-07-13T09:25:33;7.25;;;2.20;;
49962;SDS011;36180;57.678;11.910;2023-07-13T09:28:02;7.45;;;2.13;;
49962;SDS011;36180;57.678;11.910;2023-07-13T09:30:38;12.00;;;2.47;;
49962;SDS011;36180;57.678;11.910;2023-07-13T09:33:13;5.20;;;2.00;;
49962;SDS011;36180;57.678;11.910;2023-07-13T09:35:40;9.30;;;2.42;;
49962;SDS011;36180;57.678;11.910;2023-07-13T09:38:11;7.85;;;2.22;;
49962;SDS011;36180;57.678;11.910;2023-07-13T09:40:46;6.18;;;2.42;;
49962;SDS011;36180;57.678;11.910;2023-07-13T09:43:20;6.63;;;2.00;;
49962;SDS011;36180;57.678;11.910;2023-07-13T09:45:48;8.23;;;2.28;;
49962;SDS011;36180;57.678;11.910;2023-07-13T09:48:16;10.00;;;2.67;;
49962;SDS011;36180;57.678;11.910;2023-07-13T09:50:44;5.70;;;2.10;;
49962;SDS011;36180;57.678;11.910;2023-07-13T09:53:12;6.10;;;2.40;;
49962;SDS011;36180;57.678;11.910;2023-07-13T09:55:40;7.75;;;2.33;;
49962;SDS011;36180;57.678;11.910;2023-07-13T09:58:09;8.38;;;1.83;;
49962;SDS011;36180;57.678;11.910;2023-07-13T10:00:38;6.25;;;1.85;;
49962;SDS011;36180;57.678;11.910;2023-07-13T10:03:14;6.53;;;2.47;;
49962;SDS011;36180;57.678;11.910;2023-07-13T10:05:44;8.85;;;2.10;;
49962;SDS011;36180;57.678;11.910;2023-07-13T10:08:17;11.85;;;2.63;;
49962;SDS011;36180;57.678;11.910;2023-07-13T10:10:45;9.65;;;2.60;;
49962;SDS011;36180;57.678;11.910;2023-07-13T10:13:26;8.60;;;2.33;;
49962;SDS011;36180;57.678;11.910;2023-07-13T10:15:56;8.35;;;2.15;;
49962;SDS011;36180;57.678;11.910;2023-07-13T10:18:26;4.70;;;2.33;;
49962;SDS011;36180;57.678;11.910;2023-07-13T10:20:54;9.73;;;2.30;;
49962;SDS011;36180;57.678;11.910;2023-07-13T10:23:27;9.50;;;2.13;;
49962;SDS011;36180;57.678;11.910;2023-07-13T10:25:57;9.85;;;2.53;;
49962;SDS011;36180;57.678;11.910;2023-07-13T10:28:29;12.40;;;2.85;;
49962;SDS011;36180;57.678;11.910;2023-07-13T10:30:57;9.52;;;2.20;;
49962;SDS011;36180;57.678;11.910;2023-07-13T10:33:26;11.20;;;2.60;;
49962;SDS011;36180;57.678;11.910;2023-07-13T10:36:05;8.15;;;2.38;;
49962;SDS011;36180;57.678;11.910;2023-07-13T10:38:38;6.70;;;2.35;;
49962;SDS011;36180;57.678;11.910;2023-07-13T10:41:08;6.78;;;2.20;;
49962;SDS011;36180;57.678;11.910;2023-07-13T10:43:39;9.45;;;2.80;;
49962;SDS011;36180;57.678;11.910;2023-07-13T10:46:10;7.35;;;2.13;;
49962;SDS011;36180;57.678;11.910;2023-07-13T10:48:41;6.15;;;2.20;;
49962;SDS011;36180;57.678;11.910;2023-07-13T10:51:10;4.93;;;2.05;;
49962;SDS011;36180;57.678;11.910;2023-07-13T10:53:39;7.10;;;2.20;;
49962;SDS011;36180;57.678;11.910;2023-07-13T10:56:16;6.35;;;2.20;;
49962;SDS011;36180;57.678;11.910;2023-07-13T10:59:00;5.22;;;2.10;;
49962;SDS011;36180;57.678;11.910;2023-07-13T11:01:38;7.57;;;2.13;;
49962;SDS011;36180;57.678;11.910;2023-07-13T11:04:10;8.57;;;2.30;;
49962;SDS011;36180;57.678;11.910;2023-07-13T11:06:40;7.10;;;2.10;;
49962;SDS011;36180;57.678;11.910;2023-07-13T11:09:19;6.80;;;2.15;;
49962;SDS011;36180;57.678;11.910;2023-07-13T11:11:58;4.57;;;1.58;;
49962;SDS011;36180;57.678;11.910;2023-07-13T11:14:27;5.28;;;1.92;;
49962;SDS011;36180;57.678;11.910;2023-07-13T11:16:57;3.28;;;1.48;;
49962;SDS011;36180;57.678;11.910;2023-07-13T11:19:39;4.47;;;1.60;;
49962;SDS011;36180;57.678;11.910;2023-07-13T11:24:49;6.93;;;1.20;;
49962;SDS011;36180;57.678;11.910;2023-07-13T11:27:25;8.40;;;2.08;;
49962;SDS011;36180;57.678;11.910;2023-07-13T11:30:20;6.57;;;1.92;;
49962;SDS011;36180;57.678;11.910;2023-07-13T11:32:50;3.70;;;1.33;;
49962;SDS011;36180;57.678;11.910;2023-07-13T11:35:21;5.47;;;1.50;;
49962;SDS011;36180;57.678;11.910;2023-07-13T11:37:50;5.90;;;2.13;;
49962;SDS011;36180;57.678;11.910;2023-07-13T11:40:18;5.65;;;1.55;;
49962;SDS011;36180;57.678;11.910;2023-07-13T11:42:45;8.05;;;1.88;;
49962;SDS011;36180;57.678;11.910;2023-07-13T11:45:18;4.38;;;1.95;;
49962;SDS011;36180;57.678;11.910;2023-07-13T11:47:48;5.28;;;1.33;;
49962;SDS011;36180;57.678;11.910;2023-07-13T11:50:18;4.95;;;1.30;;
49962;SDS011;36180;57.678;11.910;2023-07-13T11:55:17;5.28;;;1.75;;
49962;SDS011;36180;57.678;11.910;2023-07-13T11:57:45;6.05;;;1.90;;
49962;SDS011;36180;57.678;11.910;2023-07-13T12:00:14;8.57;;;1.80;;
49962;SDS011;36180;57.678;11.910;2023-07-13T12:02:42;6.53;;;2.05;;
49962;SDS011;36180;57.678;11.910;2023-07-13T12:05:11;5.55;;;1.52;;
49962;SDS011;36180;57.678;11.910;2023-07-13T12:07:41;7.50;;;1.77;;
49962;SDS011;36180;57.678;11.910;2023-07-13T12:10:15;2.85;;;1.38;;
49962;SDS011;36180;57.678;11.910;2023-07-13T12:12:46;5.50;;;1.83;;
49962;SDS011;36180;57.678;11.910;2023-07-13T12:15:14;7.40;;;1.80;;
49962;SDS011;36180;57.678;11.910;2023-07-13T12:17:41;6.93;;;1.73;;
49962;SDS011;36180;57.678;11.910;2023-07-13T12:20:17;7.05;;;1.90;;
49962;SDS011;36180;57.678;11.910;2023-07-13T12:22:48;6.47;;;1.80;;
49962;SDS011;36180;57.678;11.910;2023-07-13T12:25:16;5.53;;;1.90;;
49962;SDS011;36180;57.678;11.910;2023-07-13T12:27:46;5.95;;;1.67;;
49962;SDS011;36180;57.678;11.910;2023-07-13T12:30:24;3.60;;;1.05;;
49962;SDS011;36180;57.678;11.910;2023-07-13T12:32:58;3.97;;;1.08;;
49962;SDS011;36180;57.678;11.910;2023-07-13T12:35:26;3.58;;;1.10;;
49962;SDS011;36180;57.678;11.910;2023-07-13T12:37:57;2.08;;;0.60;;
49962;SDS011;36180;57.678;11.910;2023-07-13T12:40:26;2.35;;;0.77;;
49962;SDS011;36180;57.678;11.910;2023-07-13T12:42:56;3.72;;;0.80;;
49962;SDS011;36180;57.678;11.910;2023-07-13T12:45:24;1.38;;;0.80;;
49962;SDS011;36180;57.678;11.910;2023-07-13T12:47:53;3.63;;;0.90;;
49962;SDS011;36180;57.678;11.910;2023-07-13T12:50:22;3.35;;;1.00;;
49962;SDS011;36180;57.678;11.910;2023-07-13T12:52:51;4.65;;;0.95;;
49962;SDS011;36180;57.678;11.910;2023-07-13T12:55:21;3.47;;;0.90;;
49962;SDS011;36180;57.678;11.910;2023-07-13T12:57:49;3.47;;;1.30;;
49962;SDS011;36180;57.678;11.910;2023-07-13T13:00:21;2.67;;;1.17;;
49962;SDS011;36180;57.678;11.910;2023-07-13T13:02:50;4.38;;;1.27;;
49962;SDS011;36180;57.678;11.910;2023-07-13T13:05:18;2.38;;;0.80;;
49962;SDS011;36180;57.678;11.910;2023-07-13T13:07:48;3.70;;;1.20;;
49962;SDS011;36180;57.678;11.910;2023-07-13T13:10:16;4.68;;;1.20;;
49962;SDS011;36180;57.678;11.910;2023-07-13T13:12:45;2.88;;;1.10;;
49962;SDS011;36180;57.678;11.910;2023-07-13T13:15:12;1.77;;;0.82;;
49962;SDS011;36180;57.678;11.910;2023-07-13T13:17:39;3.45;;;0.93;;
49962;SDS011;36180;57.678;11.910;2023-07-13T13:20:12;7.80;;;1.40;;
49962;SDS011;36180;57.678;11.910;2023-07-13T13:22:41;5.65;;;1.50;;
49962;SDS011;36180;57.678;11.910;2023-07-13T13:25:09;4.75;;;1.20;;
49962;SDS011;36180;57.678;11.910;2023-07-13T13:27:37;1.00;;;0.70;;
49962;SDS011;36180;57.678;11.910;2023-07-13T13:30:08;4.57;;;1.10;;
49962;SDS011;36180;57.678;11.910;2023-07-13T13:32:38;4.05;;;1.25;;
49962;SDS011;36180;57.678;11.910;2023-07-13T13:35:05;6.95;;;1.35;;
49962;SDS011;36180;57.678;11.910;2023-07-13T13:37:34;8.27;;;1.48;;
49962;SDS011;36180;57.678;11.910;2023-07-13T13:40:02;5.03;;;0.90;;
49962;SDS011;36180;57.678;11.910;2023-07-13T13:42:29;5.32;;;1.02;;
49962;SDS011;36180;57.678;11.910;2023-07-13T13:44:56;5.40;;;1.05;;
49962;SDS011;36180;57.678;11.910;2023-07-13T13:47:29;3.97;;;1.05;;
49962;SDS011;36180;57.678;11.910;2023-07-13T13:49:58;1.77;;;1.00;;
49962;SDS011;36180;57.678;11.910;2023-07-13T13:52:25;1.95;;;0.82;;
49962;SDS011;36180;57.678;11.910;2023-07-13T13:54:52;6.00;;;1.10;;
49962;SDS011;36180;57.678;11.910;2023-07-13T13:57:21;3.70;;;1.35;;
49962;SDS011;36180;57.678;11.910;2023-07-13T13:59:49;3.03;;;0.90;;
49962;SDS011;36180;57.678;11.910;2023-07-13T14:02:22;3.33;;;1.17;;
49962;SDS011;36180;57.678;11.910;2023-07-13T14:04:53;4.32;;;1.20;;
49962;SDS011;36180;57.678;11.910;2023-07-13T14:07:21;2.17;;;0.85;;
49962;SDS011;36180;57.678;11.910;2023-07-13T14:09:48;1.55;;;0.75;;
49962;SDS011;36180;57.678;11.910;2023-07-13T14:12:15;6.70;;;1.20;;
49962;SDS011;36180;57.678;11.910;2023-07-13T14:14:43;4.43;;;1.20;;
49962;SDS011;36180;57.678;11.910;2023-07-13T14:17:15;4.68;;;1.17;;
49962;SDS011;36180;57.678;11.910;2023-07-13T14:19:47;2.58;;;1.20;;
49962;SDS011;36180;57.678;11.910;2023-07-13T14:22:18;2.92;;;1.10;;
49962;SDS011;36180;57.678;11.910;2023-07-13T14:24:46;2.50;;;1.13;;
49962;SDS011;36180;57.678;11.910;2023-07-13T14:27:13;6.43;;;1.35;;
49962;SDS011;36180;57.678;11.910;2023-07-13T14:29:40;4.60;;;1.33;;
49962;SDS011;36180;57.678;11.910;2023-07-13T14:32:08;7.50;;;1.38;;
49962;SDS011;36180;57.678;11.910;2023-07-13T14:34:36;5.28;;;1.30;;
49962;SDS011;36180;57.678;11.910;2023-07-13T14:37:04;2.75;;;0.82;;
49962;SDS011;36180;57.678;11.910;2023-07-13T14:39:32;1.73;;;0.70;;
49962;SDS011;36180;57.678;11.910;2023-07-13T14:42:00;2.65;;;0.95;;
49962;SDS011;36180;57.678;11.910;2023-07-13T14:44:29;2.55;;;1.02;;
49962;SDS011;36180;57.678;11.910;2023-07-13T14:46:57;4.32;;;1.15;;
49962;SDS011;36180;57.678;11.910;2023-07-13T14:49:27;5.43;;;0.90;;